Time;durP1;ratioP1;P1;durP2;ratioP2;P2;SDS_P1;SDS_P2;PMS_P1;PMS_P2;Temp;Humidity;BMP_temperature;BMP_pressure;BME280_temperature;BME280_humidity;BME280_pressure;Samples;Min_cycle;Max_cycle;Signal;HPM_P1;HPM_P2
2023/04/28 00:01:26;;;;;;;11.25;7.47;;;;;;;;;;5000867;28;20423;-68
2023/04/28 00:03:52;;;;;;;8.45;5.75;;;;;;;;;;5000923;28;20923;-67
2023/04/28 00:06:17;;;;;;;8.23;5.90;;;;;;;;;;4998797;28;20049;-69
2023/04/28 00:08:42;;;;;;;9.75;6.32;;;;;;;;;;5000648;28;20045;-68
2023/04/28 00:11:09;;;;;;;7.90;6.38;;;;;;;;;;4999800;28;20042;-67
2023/04/28 00:13:35;;;;;;;13.10;6.57;;;;;;;;;;5000672;28;20053;-67
2023/04/28 00:16:01;;;;;;;6.88;4.78;;;;;;;;;;5000672;28;20515;-68
2023/04/28 00:18:26;;;;;;;9.10;6.60;;;;;;;;;;5000054;28;20057;-67
2023/04/28 00:20:51;;;;;;;8.52;5.32;;;;;;;;;;5000173;28;20061;-69
2023/04/28 00:23:17;;;;;;;7.90;4.97;;;;;;;;;;5000390;28;20624;-69
2023/04/28 00:25:42;;;;;;;8.45;4.45;;;;;;;;;;5000581;28;20046;-69
2023/04/28 00:28:07;;;;;;;5.43;4.43;;;;;;;;;;4982389;28;20072;-68
2023/04/28 00:30:33;;;;;;;5.95;4.43;;;;;;;;;;4982597;28;20526;-70
2023/04/28 00:32:58;;;;;;;5.25;4.30;;;;;;;;;;4998283;28;20192;-69
2023/04/28 00:35:24;;;;;;;5.45;3.95;;;;;;;;;;4982503;28;20858;-69
2023/04/28 00:37:49;;;;;;;7.95;3.92;;;;;;;;;;5000683;28;20054;-69
2023/04/28 00:40:15;;;;;;;4.85;3.83;;;;;;;;;;4994853;28;20034;-68
2023/04/28 00:42:40;;;;;;;6.72;4.10;;;;;;;;;;4997957;28;20422;-68
2023/04/28 00:45:06;;;;;;;11.30;3.70;;;;;;;;;;5000329;28;20107;-68
2023/04/28 00:47:36;;;;;;;7.65;3.78;;;;;;;;;;4998750;28;20136;-68
2023/04/28 00:50:04;;;;;;;6.82;4.30;;;;;;;;;;4999163;28;20049;-68
2023/04/28 00:52:48;;;;;;;5.68;3.85;;;;;;;;;;4999614;28;20062;-70
2023/04/28 00:55:23;;;;;;;4.93;3.70;;;;;;;;;;4993574;28;20132;-69
2023/04/28 00:57:50;;;;;;;6.20;3.95;;;;;;;;;;5000181;28;20176;-70
2023/04/28 01:00:16;;;;;;;4.07;3.55;;;;;;;;;;4998135;28;20519;-70
2023/04/28 01:02:42;;;;;;;4.90;3.40;;;;;;;;;;5000198;28;20077;-70
2023/04/28 01:05:08;;;;;;;7.65;3.70;;;;;;;;;;4997704;28;20049;-70
2023/04/28 01:07:34;;;;;;;4.70;3.35;;;;;;;;;;4998885;28;20407;-70
2023/04/28 01:10:02;;;;;;;3.67;2.97;;;;;;;;;;4998668;28;20057;-69
2023/04/28 01:12:30;;;;;;;5.20;3.00;;;;;;;;;;4998155;28;20052;-69
2023/04/28 01:14:57;;;;;;;3.38;3.03;;;;;;;;;;4998363;28;20073;-70
2023/04/28 01:17:23;;;;;;;3.88;3.03;;;;;;;;;;4997979;28;20157;-70
2023/04/28 01:19:48;;;;;;;4.07;3.10;;;;;;;;;;4994486;28;20046;-70
2023/04/28 01:22:15;;;;;;;6.40;2.75;;;;;;;;;;4997784;28;20038;-69
2023/04/28 01:24:41;;;;;;;3.80;2.75;;;;;;;;;;4995834;28;20085;-69
2023/04/28 01:27:08;;;;;;;5.05;3.20;;;;;;;;;;4997821;28;20046;-70
2023/04/28 01:29:35;;;;;;;3.50;2.70;;;;;;;;;;4990843;28;20049;-69
2023/04/28 01:32:02;;;;;;;4.20;3.10;;;;;;;;;;4996465;28;20482;-71
2023/04/28 01:34:28;;;;;;;5.82;3.45;;;;;;;;;;4996223;28;20723;-70
2023/04/28 01:36:53;;;;;;;5.20;3.10;;;;;;;;;;5002137;28;20041;-70
2023/04/28 01:39:19;;;;;;;5.70;2.83;;;;;;;;;;4992051;28;20101;-70
2023/04/28 01:41:44;;;;;;;3.50;2.78;;;;;;;;;;4994991;28;20050;-70
2023/04/28 01:44:11;;;;;;;4.22;2.70;;;;;;;;;;5002686;28;20046;-71
2023/04/28 01:46:37;;;;;;;2.50;2.30;;;;;;;;;;5001579;28;20049;-71
2023/04/28 01:49:02;;;;;;;4.63;2.67;;;;;;;;;;5003387;28;20050;-70
2023/04/28 01:51:28;;;;;;;3.47;2.70;;;;;;;;;;5003505;28;20045;-70
2023/04/28 01:53:53;;;;;;;4.93;2.90;;;;;;;;;;5003049;28;20041;-70
2023/04/28 01:56:19;;;;;;;4.07;2.78;;;;;;;;;;5000302;28;20087;-69
2023/04/28 01:58:45;;;;;;;6.35;3.45;;;;;;;;;;5001560;28;20537;-70
2023/04/28 02:01:11;;;;;;;3.80;3.10;;;;;;;;;;5001907;28;20522;-71
2023/04/28 02:03:37;;;;;;;3.92;3.03;;;;;;;;;;5001423;28;20046;-70
2023/04/28 02:06:03;;;;;;;4.28;3.28;;;;;;;;;;5001768;28;20054;-71
2023/04/28 02:08:29;;;;;;;6.57;3.40;;;;;;;;;;5000126;28;20050;-71
2023/04/28 02:10:56;;;;;;;3.13;2.78;;;;;;;;;;4988312;28;20465;-69
2023/04/28 02:13:21;;;;;;;3.55;2.90;;;;;;;;;;4982120;28;20057;-69
2023/04/28 02:15:47;;;;;;;3.85;2.83;;;;;;;;;;4996793;28;20045;-70
2023/04/28 02:18:12;;;;;;;5.07;2.40;;;;;;;;;;5000345;28;20087;-71
2023/04/28 02:20:39;;;;;;;5.70;2.50;;;;;;;;;;5002854;28;20037;-69
2023/04/28 02:23:07;;;;;;;2.45;2.25;;;;;;;;;;5001399;28;20203;-69
2023/04/28 02:25:32;;;;;;;3.70;2.92;;;;;;;;;;5002687;28;20050;-69
2023/04/28 02:27:58;;;;;;;3.45;2.45;;;;;;;;;;5002636;28;20112;-69
2023/04/28 02:30:25;;;;;;;3.42;2.92;;;;;;;;;;4999900;28;20069;-67
2023/04/28 02:32:50;;;;;;;3.22;2.70;;;;;;;;;;5000775;28;20042;-68
2023/04/28 02:35:16;;;;;;;3.95;2.55;;;;;;;;;;5000910;28;20133;-69
2023/04/28 02:37:42;;;;;;;3.25;2.67;;;;;;;;;;5017793;28;20042;-67
2023/04/28 02:40:08;;;;;;;3.58;2.53;;;;;;;;;;4999656;28;20034;-69
2023/04/28 02:42:33;;;;;;;7.22;2.85;;;;;;;;;;5000525;28;20038;-69
2023/04/28 02:44:59;;;;;;;3.50;2.88;;;;;;;;;;5001623;28;20037;-68
2023/04/28 02:47:24;;;;;;;3.67;2.95;;;;;;;;;;5001861;28;20053;-69
2023/04/28 02:49:50;;;;;;;5.90;2.80;;;;;;;;;;5002098;28;20100;-69
2023/04/28 02:52:16;;;;;;;2.95;2.55;;;;;;;;;;4999431;28;20398;-68
2023/04/28 02:54:41;;;;;;;5.25;2.83;;;;;;;;;;4998014;28;20122;-69
2023/04/28 02:57:07;;;;;;;3.50;2.80;;;;;;;;;;5001147;28;20034;-69
2023/04/28 02:59:32;;;;;;;3.65;2.97;;;;;;;;;;5002202;28;20042;-69
2023/04/28 03:01:58;;;;;;;4.55;2.75;;;;;;;;;;5000297;28;20060;-69
2023/04/28 03:04:23;;;;;;;6.30;2.90;;;;;;;;;;4998096;28;20137;-68
2023/04/28 03:06:49;;;;;;;3.03;2.72;;;;;;;;;;5000265;28;20050;-68
2023/04/28 03:09:15;;;;;;;4.38;3.38;;;;;;;;;;5000193;28;20506;-68
2023/04/28 03:11:40;;;;;;;2.15;2.05;;;;;;;;;;5001525;28;20060;-68
2023/04/28 03:14:06;;;;;;;3.28;2.75;;;;;;;;;;4998857;28;20038;-68
2023/04/28 03:16:32;;;;;;;3.85;3.45;;;;;;;;;;5016227;28;20499;-69
2023/04/28 03:18:58;;;;;;;2.45;2.00;;;;;;;;;;4999365;28;20077;-68
2023/04/28 03:21:26;;;;;;;3.22;2.60;;;;;;;;;;5000747;28;20502;-69
2023/04/28 03:23:52;;;;;;;5.82;2.88;;;;;;;;;;4999788;28;20057;-68
2023/04/28 03:26:18;;;;;;;3.35;2.90;;;;;;;;;;4997792;28;20072;-68
2023/04/28 03:28:43;;;;;;;6.00;2.72;;;;;;;;;;4994555;28;20042;-69
2023/04/28 03:31:09;;;;;;;5.47;2.90;;;;;;;;;;4977331;28;20078;-69
2023/04/28 03:33:34;;;;;;;4.18;2.40;;;;;;;;;;5011472;28;20034;-69
2023/04/28 03:36:00;;;;;;;2.95;2.25;;;;;;;;;;5009581;28;20046;-69
2023/04/28 03:38:26;;;;;;;3.70;2.40;;;;;;;;;;4980257;28;20053;-68
2023/04/28 03:40:52;;;;;;;4.20;2.60;;;;;;;;;;5012716;28;20456;-69
2023/04/28 03:43:27;;;;;;;2.78;2.40;;;;;;;;;;4981519;28;20057;-68
2023/04/28 03:46:06;;;;;;;2.58;2.38;;;;;;;;;;5001224;28;20507;-68
2023/04/28 03:48:32;;;;;;;2.80;2.50;;;;;;;;;;4977515;28;20057;-69
2023/04/28 03:50:57;;;;;;;3.10;2.80;;;;;;;;;;5005083;28;20053;-68
2023/04/28 03:53:24;;;;;;;6.45;2.97;;;;;;;;;;4975060;28;20569;-68
2023/04/28 03:55:49;;;;;;;3.35;2.53;;;;;;;;;;5011694;28;20149;-68
2023/04/28 03:58:16;;;;;;;6.10;3.05;;;;;;;;;;4990585;28;20061;-70
2023/04/28 04:00:43;;;;;;;4.28;3.22;;;;;;;;;;4979557;28;20562;-70
2023/04/28 04:03:09;;;;;;;6.70;3.17;;;;;;;;;;4979090;28;20046;-69
2023/04/28 04:05:34;;;;;;;3.30;3.00;;;;;;;;;;4979333;28;20134;-69
2023/04/28 04:08:01;;;;;;;4.75;3.17;;;;;;;;;;4980481;28;20038;-70
2023/04/28 04:10:26;;;;;;;3.08;2.72;;;;;;;;;;4974743;28;20149;-70
2023/04/28 04:12:52;;;;;;;5.68;3.05;;;;;;;;;;4978663;28;20050;-70
2023/04/28 04:15:19;;;;;;;3.25;2.95;;;;;;;;;;4996501;28;20142;-68
2023/04/28 04:17:46;;;;;;;5.10;3.22;;;;;;;;;;4981504;28;20073;-69
2023/04/28 04:20:11;;;;;;;3.60;3.30;;;;;;;;;;4997101;28;20041;-71
2023/04/28 04:22:37;;;;;;;3.90;3.15;;;;;;;;;;4997458;28;20038;-71
2023/04/28 04:25:02;;;;;;;3.95;3.00;;;;;;;;;;4995357;28;20849;-70
2023/04/28 04:27:28;;;;;;;3.42;2.85;;;;;;;;;;4979723;28;20041;-70
2023/04/28 04:29:54;;;;;;;8.80;3.08;;;;;;;;;;4997447;28;20041;-71
2023/04/28 04:32:19;;;;;;;4.35;2.83;;;;;;;;;;4995414;28;20557;-71
2023/04/28 04:34:45;;;;;;;3.40;2.97;;;;;;;;;;4995222;28;20046;-71
2023/04/28 04:37:10;;;;;;;4.78;3.30;;;;;;;;;;4997395;28;20038;-70
2023/04/28 04:39:41;;;;;;;4.67;3.50;;;;;;;;;;4997516;28;20042;-71
2023/04/28 04:42:08;;;;;;;3.67;3.20;;;;;;;;;;4997535;28;20033;-72
2023/04/28 04:44:43;;;;;;;4.60;3.67;;;;;;;;;;4963742;28;20438;-71
2023/04/28 04:47:17;;;;;;;3.58;3.00;;;;;;;;;;4991901;28;20042;-75
2023/04/28 04:49:44;;;;;;;5.55;3.40;;;;;;;;;;4993566;28;20160;-74
2023/04/28 04:52:10;;;;;;;3.78;2.78;;;;;;;;;;4997056;28;20390;-76
2023/04/28 04:54:36;;;;;;;3.53;2.97;;;;;;;;;;4997661;28;20045;-76
2023/04/28 04:57:02;;;;;;;2.40;2.20;;;;;;;;;;5014712;28;20470;-76
2023/04/28 04:59:48;;;;;;;3.25;2.80;;;;;;;;;;4998961;28;20088;-74
2023/04/28 05:02:16;;;;;;;3.92;2.80;;;;;;;;;;4997448;28;20052;-76
2023/04/28 05:04:42;;;;;;;2.92;2.60;;;;;;;;;;4998874;28;20499;-73
2023/04/28 05:07:08;;;;;;;3.35;2.72;;;;;;;;;;4986454;28;20053;-72
2023/04/28 05:09:34;;;;;;;2.50;2.30;;;;;;;;;;4991943;28;20061;-73
2023/04/28 05:11:59;;;;;;;4.88;2.60;;;;;;;;;;4986788;28;20053;-72
2023/04/28 05:14:25;;;;;;;2.70;2.25;;;;;;;;;;4966223;28;20487;-71
2023/04/28 05:16:51;;;;;;;3.40;2.47;;;;;;;;;;5002940;28;20873;-72
2023/04/28 05:19:25;;;;;;;7.25;3.10;;;;;;;;;;4970265;28;20050;-70
2023/04/28 05:21:53;;;;;;;2.92;2.40;;;;;;;;;;4995919;28;20061;-73
2023/04/28 05:24:22;;;;;;;4.93;2.83;;;;;;;;;;5002723;28;20039;-70
2023/04/28 05:26:50;;;;;;;2.90;2.60;;;;;;;;;;4987865;28;20089;-70
2023/04/28 05:29:17;;;;;;;2.60;2.38;;;;;;;;;;5004435;28;20077;-71
2023/04/28 05:31:42;;;;;;;3.25;2.50;;;;;;;;;;4985375;28;20683;-70
2023/04/28 05:34:08;;;;;;;2.58;2.38;;;;;;;;;;4968707;28;20534;-72
2023/04/28 05:36:34;;;;;;;5.78;2.47;;;;;;;;;;4985887;28;20057;-71
2023/04/28 05:39:00;;;;;;;4.78;2.58;;;;;;;;;;5001897;28;20073;-73
2023/04/28 05:41:25;;;;;;;5.97;3.42;;;;;;;;;;4991157;28;20516;-74
2023/04/28 05:43:50;;;;;;;4.85;2.90;;;;;;;;;;4991389;28;20052;-72
2023/04/28 05:46:16;;;;;;;6.10;3.28;;;;;;;;;;4978905;28;20061;-72
2023/04/28 05:48:42;;;;;;;6.97;3.20;;;;;;;;;;4975283;28;20113;-72
2023/04/28 05:51:09;;;;;;;6.43;3.30;;;;;;;;;;4990894;28;20499;-70
2023/04/28 05:53:34;;;;;;;3.65;3.33;;;;;;;;;;4977717;28;20057;-75
2023/04/28 05:56:00;;;;;;;5.60;3.70;;;;;;;;;;4979097;28;20054;-72
2023/04/28 05:58:25;;;;;;;6.07;3.22;;;;;;;;;;4977146;28;20794;-72
2023/04/28 06:00:52;;;;;;;3.40;3.10;;;;;;;;;;5008426;28;20149;-72
2023/04/28 06:03:18;;;;;;;5.10;2.90;;;;;;;;;;5014038;28;20128;-69
2023/04/28 06:05:44;;;;;;;5.30;3.38;;;;;;;;;;5012699;28;20053;-70
2023/04/28 06:08:12;;;;;;;4.75;3.35;;;;;;;;;;5006657;28;20046;-69
2023/04/28 06:10:37;;;;;;;3.70;3.15;;;;;;;;;;4978729;28;20057;-74
2023/04/28 06:13:03;;;;;;;5.13;3.03;;;;;;;;;;4989565;28;20050;-72
2023/04/28 06:15:29;;;;;;;5.35;3.33;;;;;;;;;;5011155;28;20038;-70
2023/04/28 06:17:55;;;;;;;3.88;3.40;;;;;;;;;;5008678;28;20940;-71
2023/04/28 06:20:20;;;;;;;5.75;3.55;;;;;;;;;;4973566;28;20042;-71
2023/04/28 06:22:46;;;;;;;3.92;3.10;;;;;;;;;;4978610;28;20053;-72
2023/04/28 06:25:11;;;;;;;6.43;3.75;;;;;;;;;;5012348;28;20202;-73
2023/04/28 06:27:54;;;;;;;6.25;3.17;;;;;;;;;;4992816;28;20042;-72
2023/04/28 06:30:21;;;;;;;6.35;4.10;;;;;;;;;;4972671;28;20051;-74
2023/04/28 06:32:46;;;;;;;5.97;3.60;;;;;;;;;;4974224;28;20038;-73
2023/04/28 06:35:13;;;;;;;3.95;3.53;;;;;;;;;;4977241;28;20677;-74
2023/04/28 06:37:38;;;;;;;9.30;3.85;;;;;;;;;;4970494;28;20042;-75
2023/04/28 06:40:04;;;;;;;4.70;3.47;;;;;;;;;;4976244;28;20511;-72
2023/04/28 06:42:29;;;;;;;5.10;3.60;;;;;;;;;;4999451;28;20077;-71
2023/04/28 06:45:03;;;;;;;3.90;3.50;;;;;;;;;;4978266;28;20419;-72
2023/04/28 06:47:29;;;;;;;4.07;3.40;;;;;;;;;;4979982;28;20047;-70
2023/04/28 06:49:54;;;;;;;3.83;3.25;;;;;;;;;;4979823;28;20054;-74
2023/04/28 06:52:21;;;;;;;5.00;3.40;;;;;;;;;;5012407;28;20073;-74
2023/04/28 06:54:46;;;;;;;8.40;3.88;;;;;;;;;;5006447;28;20468;-74
2023/04/28 06:57:12;;;;;;;4.10;3.50;;;;;;;;;;4974299;28;20050;-73
2023/04/28 06:59:38;;;;;;;6.30;3.20;;;;;;;;;;4977843;28;20086;-75
2023/04/28 07:02:04;;;;;;;6.15;3.90;;;;;;;;;;4992361;28;20096;-73
2023/04/28 07:04:29;;;;;;;4.20;3.63;;;;;;;;;;4974854;28;20104;-71
2023/04/28 07:06:55;;;;;;;4.25;3.85;;;;;;;;;;4981708;28;20121;-70
2023/04/28 07:09:20;;;;;;;5.28;3.60;;;;;;;;;;4982127;28;20545;-70
2023/04/28 07:11:46;;;;;;;4.45;3.85;;;;;;;;;;4981310;28;20400;-71
2023/04/28 07:14:11;;;;;;;5.10;3.17;;;;;;;;;;4982920;28;20054;-72
2023/04/28 07:16:36;;;;;;;3.40;3.05;;;;;;;;;;4981691;28;20760;-73
2023/04/28 07:19:02;;;;;;;6.05;3.45;;;;;;;;;;4985262;28;20046;-75
2023/04/28 07:21:27;;;;;;;3.95;3.03;;;;;;;;;;4983445;28;20046;-72
2023/04/28 07:23:56;;;;;;;5.40;3.33;;;;;;;;;;4982455;28;20042;-76
2023/04/28 07:26:22;;;;;;;3.38;2.83;;;;;;;;;;4980182;28;20112;-74
2023/04/28 07:28:47;;;;;;;3.15;2.75;;;;;;;;;;4982523;28;20050;-73
2023/04/28 07:31:13;;;;;;;4.20;2.83;;;;;;;;;;4981022;28;20050;-73
2023/04/28 07:33:39;;;;;;;3.72;2.80;;;;;;;;;;4982671;28;20546;-71
2023/04/28 07:36:05;;;;;;;5.00;2.88;;;;;;;;;;4983872;28;20045;-73
2023/04/28 07:38:32;;;;;;;3.85;2.75;;;;;;;;;;4979653;28;20046;-73
2023/04/28 07:40:57;;;;;;;3.05;2.67;;;;;;;;;;4980223;28;20065;-72
2023/04/28 07:43:23;;;;;;;4.20;2.65;;;;;;;;;;4979917;28;20411;-74
2023/04/28 07:45:48;;;;;;;3.80;2.95;;;;;;;;;;4994736;28;20049;-74
2023/04/28 07:48:14;;;;;;;5.22;3.20;;;;;;;;;;5000170;28;20115;-70
2023/04/28 07:50:40;;;;;;;2.90;2.60;;;;;;;;;;5000761;28;20160;-74
2023/04/28 07:53:06;;;;;;;3.70;2.72;;;;;;;;;;4992219;28;21259;-74
2023/04/28 07:55:31;;;;;;;5.85;3.10;;;;;;;;;;5000887;28;20050;-71
2023/04/28 07:57:57;;;;;;;3.97;3.58;;;;;;;;;;4998953;28;20079;-71
2023/04/28 08:00:23;;;;;;;7.85;3.20;;;;;;;;;;4998031;28;20038;-71
2023/04/28 08:02:49;;;;;;;3.35;2.70;;;;;;;;;;4999976;28;20107;-72
2023/04/28 08:05:15;;;;;;;3.72;3.13;;;;;;;;;;5000533;28;20076;-69
2023/04/28 08:07:41;;;;;;;2.88;2.53;;;;;;;;;;5000281;28;20125;-71
2023/04/28 08:10:09;;;;;;;4.78;2.78;;;;;;;;;;4999877;28;20804;-72
2023/04/28 08:12:34;;;;;;;4.88;3.53;;;;;;;;;;4999898;28;20052;-71
2023/04/28 08:15:00;;;;;;;4.55;2.83;;;;;;;;;;5000185;28;20057;-71
2023/04/28 08:17:25;;;;;;;3.50;2.88;;;;;;;;;;5000362;28;20129;-70
2023/04/28 08:19:51;;;;;;;4.20;2.60;;;;;;;;;;4999757;28;20053;-69
2023/04/28 08:22:16;;;;;;;4.05;2.35;;;;;;;;;;4998886;28;20493;-70
2023/04/28 08:24:42;;;;;;;2.55;2.30;;;;;;;;;;4998569;28;20052;-72
2023/04/28 08:27:07;;;;;;;6.82;4.97;;;;;;;;;;5000268;28;20636;-71
2023/04/28 08:29:33;;;;;;;4.70;2.75;;;;;;;;;;5000262;28;20052;-72
2023/04/28 08:32:00;;;;;;;5.13;2.55;;;;;;;;;;4999749;28;20502;-71
2023/04/28 08:34:26;;;;;;;3.03;2.60;;;;;;;;;;4998382;28;20092;-73
2023/04/28 08:36:52;;;;;;;2.63;2.15;;;;;;;;;;4999987;28;20161;-72
2023/04/28 08:39:19;;;;;;;4.00;2.50;;;;;;;;;;4999966;28;20049;-73
2023/04/28 08:41:45;;;;;;;2.63;2.42;;;;;;;;;;4999887;28;20487;-70
2023/04/28 08:44:11;;;;;;;2.45;2.25;;;;;;;;;;5000580;28;20092;-73
2023/04/28 08:46:42;;;;;;;3.97;2.45;;;;;;;;;;4998621;28;20136;-74
2023/04/28 08:49:13;;;;;;;2.50;2.30;;;;;;;;;;5000204;28;20788;-72
2023/04/28 08:51:53;;;;;;;2.67;2.35;;;;;;;;;;4999198;28;20152;-72
2023/04/28 08:54:19;;;;;;;3.22;2.30;;;;;;;;;;4976434;28;20643;-72
2023/04/28 08:56:46;;;;;;;3.10;2.78;;;;;;;;;;4998646;28;20084;-72
2023/04/28 08:59:12;;;;;;;3.50;2.58;;;;;;;;;;4997872;28;20331;-72
2023/04/28 09:01:38;;;;;;;3.45;2.85;;;;;;;;;;4999484;28;20038;-71
2023/04/28 09:04:04;;;;;;;3.25;2.67;;;;;;;;;;4998255;28;20053;-71
2023/04/28 09:06:33;;;;;;;3.28;2.63;;;;;;;;;;4999197;28;20498;-72
2023/04/28 09:09:21;;;;;;;8.98;3.30;;;;;;;;;;4999317;28;20089;-71
2023/04/28 09:12:00;;;;;;;6.07;2.92;;;;;;;;;;4999176;28;20085;-71
2023/04/28 09:14:31;;;;;;;6.85;3.30;;;;;;;;;;4999549;28;20049;-72
2023/04/28 09:16:57;;;;;;;4.78;3.33;;;;;;;;;;4999517;28;20050;-72
2023/04/28 09:19:23;;;;;;;4.20;3.40;;;;;;;;;;4999647;28;20081;-72
2023/04/28 09:21:54;;;;;;;4.68;3.40;;;;;;;;;;4999311;28;20050;-72
2023/04/28 09:24:30;;;;;;;5.05;4.00;;;;;;;;;;5000326;28;20406;-71
2023/04/28 09:27:01;;;;;;;7.65;6.10;;;;;;;;;;5000503;28;20053;-72
2023/04/28 09:29:27;;;;;;;5.97;3.05;;;;;;;;;;5000349;28;20041;-72
2023/04/28 09:31:53;;;;;;;4.18;2.85;;;;;;;;;;4999866;28;20967;-72
2023/04/28 09:34:19;;;;;;;3.13;2.83;;;;;;;;;;4999249;28;20168;-71
2023/04/28 09:36:45;;;;;;;4.32;3.00;;;;;;;;;;5000420;28;20046;-72
2023/04/28 09:39:11;;;;;;;4.03;2.95;;;;;;;;;;5000621;28;20052;-72
2023/04/28 09:41:42;;;;;;;2.90;2.60;;;;;;;;;;5000894;28;20435;-71
2023/04/28 09:44:16;;;;;;;3.53;2.78;;;;;;;;;;5015339;28;20085;-73
2023/04/28 09:46:45;;;;;;;3.55;2.83;;;;;;;;;;4979586;28;20133;-73
2023/04/28 09:49:12;;;;;;;3.67;2.70;;;;;;;;;;4979823;28;20053;-72
2023/04/28 09:51:38;;;;;;;3.08;2.60;;;;;;;;;;4980461;28;20480;-72
2023/04/28 09:54:04;;;;;;;3.88;2.88;;;;;;;;;;4980222;28;20042;-70
2023/04/28 09:56:32;;;;;;;4.50;2.72;;;;;;;;;;4987133;28;20042;-74
2023/04/28 09:58:59;;;;;;;4.80;2.95;;;;;;;;;;4988701;28;20450;-72
2023/04/28 10:01:31;;;;;;;3.25;2.85;;;;;;;;;;4984033;28;20745;-72
2023/04/28 10:03:59;;;;;;;3.88;3.40;;;;;;;;;;4979282;28;20529;-74
2023/04/28 10:06:27;;;;;;;4.30;3.20;;;;;;;;;;5001695;28;20041;-72
2023/04/28 10:08:56;;;;;;;5.22;4.07;;;;;;;;;;5002159;28;20062;-72
2023/04/28 10:11:24;;;;;;;5.50;3.80;;;;;;;;;;5000456;28;20049;-72
2023/04/28 10:13:50;;;;;;;6.60;3.80;;;;;;;;;;4989336;28;20050;-73
2023/04/28 10:16:16;;;;;;;7.78;4.10;;;;;;;;;;4991712;28;20046;-72
2023/04/28 10:18:43;;;;;;;8.10;4.32;;;;;;;;;;4982421;28;20109;-72
2023/04/28 10:21:10;;;;;;;8.88;4.45;;;;;;;;;;4976007;28;20514;-71
2023/04/28 10:23:54;;;;;;;6.47;4.68;;;;;;;;;;4985835;28;20045;-73
2023/04/28 10:26:22;;;;;;;6.63;3.90;;;;;;;;;;5001963;28;20038;-73
2023/04/28 10:28:50;;;;;;;3.70;3.40;;;;;;;;;;5001712;28;20045;-72
2023/04/28 10:31:17;;;;;;;4.28;3.30;;;;;;;;;;5003578;28;20061;-73
2023/04/28 10:33:43;;;;;;;4.03;3.28;;;;;;;;;;5003366;28;20057;-72
2023/04/28 10:36:09;;;;;;;5.70;3.88;;;;;;;;;;5006315;28;20099;-72
2023/04/28 10:39:00;;;;;;;4.57;3.78;;;;;;;;;;5001625;28;20073;-73
2023/04/28 10:41:32;;;;;;;7.07;4.28;;;;;;;;;;5003135;28;20081;-73
2023/04/28 10:43:57;;;;;;;3.95;3.53;;;;;;;;;;4977845;28;20053;-72
2023/04/28 10:46:23;;;;;;;4.25;3.65;;;;;;;;;;5001054;28;20108;-73
2023/04/28 10:48:48;;;;;;;5.25;3.70;;;;;;;;;;5002005;28;20057;-72
2023/04/28 10:51:13;;;;;;;6.47;4.10;;;;;;;;;;5002426;28;20478;-71
2023/04/28 10:53:44;;;;;;;11.23;4.15;;;;;;;;;;4999900;28;20049;-71
2023/04/28 10:56:11;;;;;;;5.17;4.30;;;;;;;;;;5000836;28;20041;-71
2023/04/28 10:58:42;;;;;;;6.22;4.07;;;;;;;;;;5015628;28;20045;-72
2023/04/28 11:01:20;;;;;;;5.95;4.40;;;;;;;;;;5000223;28;20124;-71
2023/04/28 11:03:46;;;;;;;4.57;3.83;;;;;;;;;;5001238;28;20494;-71
2023/04/28 11:06:31;;;;;;;10.15;4.40;;;;;;;;;;4998874;28;20050;-72
2023/04/28 11:08:59;;;;;;;6.32;3.53;;;;;;;;;;5000500;28;20578;-71
2023/04/28 11:11:33;;;;;;;7.50;4.10;;;;;;;;;;5001074;28;20045;-71
2023/04/28 11:14:17;;;;;;;4.00;3.63;;;;;;;;;;4999748;28;20107;-71
2023/04/28 11:16:54;;;;;;;5.00;4.10;;;;;;;;;;4998927;28;20073;-72
2023/04/28 11:19:23;;;;;;;7.85;4.95;;;;;;;;;;5003110;28;20137;-73
2023/04/28 11:21:50;;;;;;;5.38;4.35;;;;;;;;;;5003508;28;20060;-73
2023/04/28 11:24:16;;;;;;;5.40;4.47;;;;;;;;;;4983289;28;20124;-71
2023/04/28 11:26:42;;;;;;;8.07;4.63;;;;;;;;;;5000776;28;20136;-70
2023/04/28 11:29:09;;;;;;;5.95;3.97;;;;;;;;;;4999298;28;20057;-71
2023/04/28 11:31:35;;;;;;;5.80;4.43;;;;;;;;;;5000255;28;20054;-73
2023/04/28 11:34:06;;;;;;;5.22;4.35;;;;;;;;;;5000050;28;20056;-73
2023/04/28 11:36:37;;;;;;;7.30;4.35;;;;;;;;;;4998543;28;20049;-71
2023/04/28 11:39:07;;;;;;;7.38;4.60;;;;;;;;;;4999428;28;20193;-71
2023/04/28 11:41:34;;;;;;;5.97;4.53;;;;;;;;;;5000641;28;20826;-72
2023/04/28 11:44:08;;;;;;;6.78;4.40;;;;;;;;;;5000349;28;20050;-72
2023/04/28 11:46:33;;;;;;;6.47;4.80;;;;;;;;;;5000281;28;20050;-73
2023/04/28 11:49:01;;;;;;;6.82;4.60;;;;;;;;;;4997155;28;20042;-73
2023/04/28 11:51:37;;;;;;;8.02;4.53;;;;;;;;;;4999927;28;20054;-73
2023/04/28 11:54:06;;;;;;;4.88;4.28;;;;;;;;;;4998662;28;20054;-72
2023/04/28 11:56:36;;;;;;;5.72;4.10;;;;;;;;;;4999344;28;20113;-74
2023/04/28 11:59:04;;;;;;;5.13;4.32;;;;;;;;;;4999986;28;20042;-73
2023/04/28 12:01:31;;;;;;;7.57;4.47;;;;;;;;;;4999290;28;20084;-73
2023/04/28 12:03:57;;;;;;;6.28;4.20;;;;;;;;;;4991956;28;20042;-74
2023/04/28 12:06:23;;;;;;;8.88;4.25;;;;;;;;;;4997480;28;20067;-72
2023/04/28 12:08:48;;;;;;;3.90;3.42;;;;;;;;;;4997902;28;20048;-69
2023/04/28 12:11:16;;;;;;;4.25;3.85;;;;;;;;;;4997657;28;20046;-71
2023/04/28 12:13:42;;;;;;;4.30;3.10;;;;;;;;;;4995450;28;20506;-73
2023/04/28 12:16:08;;;;;;;5.28;4.05;;;;;;;;;;4996389;28;20052;-73
2023/04/28 12:18:37;;;;;;;5.60;3.53;;;;;;;;;;4997414;28;20046;-71
2023/04/28 12:21:03;;;;;;;4.75;3.00;;;;;;;;;;4995662;28;20050;-72
2023/04/28 12:23:34;;;;;;;3.58;3.10;;;;;;;;;;4996788;28;20149;-72
2023/04/28 12:26:01;;;;;;;3.92;3.22;;;;;;;;;;5011762;28;20125;-71
2023/04/28 12:28:37;;;;;;;3.65;2.65;;;;;;;;;;4997312;28;20756;-73
2023/04/28 12:31:04;;;;;;;3.35;3.05;;;;;;;;;;4997184;28;20054;-72
2023/04/28 12:33:29;;;;;;;6.88;3.50;;;;;;;;;;5010143;28;20065;-71
2023/04/28 12:35:56;;;;;;;3.88;2.75;;;;;;;;;;4998096;28;20481;-71
2023/04/28 12:38:23;;;;;;;3.17;2.88;;;;;;;;;;5000031;28;20049;-70
2023/04/28 12:40:48;;;;;;;2.53;2.28;;;;;;;;;;4996165;28;20129;-72
2023/04/28 12:43:14;;;;;;;3.22;2.00;;;;;;;;;;4995769;28;20874;-71
2023/04/28 12:45:40;;;;;;;3.47;2.47;;;;;;;;;;4997074;28;20463;-71
2023/04/28 12:48:06;;;;;;;3.25;2.17;;;;;;;;;;4997443;28;20054;-72
2023/04/28 12:50:32;;;;;;;2.90;2.03;;;;;;;;;;4997277;28;20081;-71
2023/04/28 12:52:58;;;;;;;2.22;2.03;;;;;;;;;;4997471;28;20058;-71
2023/04/28 12:55:23;;;;;;;2.80;2.10;;;;;;;;;;4997642;28;20107;-71
2023/04/28 12:57:49;;;;;;;4.95;2.03;;;;;;;;;;4997066;28;20041;-71
2023/04/28 13:00:20;;;;;;;7.80;1.63;;;;;;;;;;4997507;28;20484;-71
2023/04/28 13:02:45;;;;;;;1.03;0.70;;;;;;;;;;4997874;28;20072;-71
2023/04/28 13:05:13;;;;;;;8.07;0.63;;;;;;;;;;4998870;28;20313;-72
2023/04/28 13:07:38;;;;;;;0.28;0.28;;;;;;;;;;4997499;28;20056;-71
2023/04/28 13:10:05;;;;;;;0.32;0.28;;;;;;;;;;4998426;28;20054;-71
2023/04/28 13:12:32;;;;;;;5.13;0.35;;;;;;;;;;4996386;28;20066;-72
2023/04/28 13:14:57;;;;;;;0.80;0.30;;;;;;;;;;4998308;28;20383;-72
2023/04/28 13:17:23;;;;;;;0.30;0.30;;;;;;;;;;4998564;28;20052;-71
2023/04/28 13:19:48;;;;;;;0.60;0.40;;;;;;;;;;4997013;28;20049;-70
2023/04/28 13:22:14;;;;;;;0.20;0.20;;;;;;;;;;5013381;28;20479;-72
2023/04/28 13:24:40;;;;;;;0.30;0.30;;;;;;;;;;4996585;28;20048;-71
2023/04/28 13:27:08;;;;;;;3.13;0.40;;;;;;;;;;4997848;28;20698;-72
2023/04/28 13:29:35;;;;;;;1.58;0.40;;;;;;;;;;4997477;28;20053;-72
2023/04/28 13:32:01;;;;;;;0.47;0.25;;;;;;;;;;5001594;28;20543;-72
2023/04/28 13:34:26;;;;;;;0.20;0.20;;;;;;;;;;5001739;28;20140;-70
2023/04/28 13:36:54;;;;;;;0.50;0.30;;;;;;;;;;4997772;28;20053;-73
2023/04/28 13:39:20;;;;;;;0.32;0.32;;;;;;;;;;4999704;28;20168;-70
2023/04/28 13:41:48;;;;;;;1.98;0.30;;;;;;;;;;4999178;28;20046;-71
2023/04/28 13:44:13;;;;;;;1.13;0.35;;;;;;;;;;5000037;28;20045;-71
2023/04/28 13:46:39;;;;;;;0.43;0.40;;;;;;;;;;4999983;28;20686;-72
2023/04/28 13:49:04;;;;;;;2.10;0.30;;;;;;;;;;5000178;28;20058;-71
2023/04/28 13:51:31;;;;;;;0.32;0.30;;;;;;;;;;4997779;28;20053;-70
2023/04/28 13:53:57;;;;;;;1.60;0.25;;;;;;;;;;5010320;28;20655;-72
2023/04/28 13:56:23;;;;;;;0.20;0.20;;;;;;;;;;5002820;28;20092;-72
2023/04/28 13:58:48;;;;;;;0.20;0.20;;;;;;;;;;5000977;28;20092;-72
2023/04/28 14:01:14;;;;;;;0.20;0.20;;;;;;;;;;5003264;28;20088;-72
2023/04/28 14:03:40;;;;;;;0.30;0.30;;;;;;;;;;5001158;28;20045;-73
2023/04/28 14:06:05;;;;;;;0.20;0.20;;;;;;;;;;5001275;28;20137;-73
2023/04/28 14:08:31;;;;;;;0.98;0.70;;;;;;;;;;5002482;28;20042;-73
2023/04/28 14:10:57;;;;;;;1.98;0.22;;;;;;;;;;5000674;28;20537;-71
2023/04/28 14:13:23;;;;;;;1.75;0.40;;;;;;;;;;5000986;28;20045;-71
2023/04/28 14:15:54;;;;;;;1.85;0.20;;;;;;;;;;5001711;28;20041;-71
2023/04/28 14:18:20;;;;;;;0.20;0.20;;;;;;;;;;5001932;28;20111;-71
2023/04/28 14:20:46;;;;;;;0.98;0.20;;;;;;;;;;5002041;28;20503;-71
2023/04/28 14:23:11;;;;;;;1.27;0.22;;;;;;;;;;5002372;28;20478;-70
2023/04/28 14:25:37;;;;;;;0.22;0.22;;;;;;;;;;4998310;28;20050;-70
2023/04/28 14:28:02;;;;;;;1.52;0.30;;;;;;;;;;4997886;28;20053;-69
2023/04/28 14:30:28;;;;;;;1.15;0.10;;;;;;;;;;4998698;28;20052;-70
2023/04/28 14:32:53;;;;;;;0.20;0.10;;;;;;;;;;4998859;28;20049;-69
2023/04/28 14:35:22;;;;;;;0.22;0.22;;;;;;;;;;4998242;28;20034;-70
2023/04/28 14:37:48;;;;;;;0.22;0.10;;;;;;;;;;4999387;28;20046;-72
2023/04/28 14:40:14;;;;;;;0.55;0.20;;;;;;;;;;4998448;28;20103;-70
2023/04/28 14:42:39;;;;;;;0.30;0.20;;;;;;;;;;4998514;28;20057;-70